createdAt,value
2023-05-10T00:00:56.186Z,100.00
2023-05-10T00:03:26.978Z,100.00
2023-05-10T00:05:57.871Z,100.00
2023-05-10T00:08:26.177Z,100.00
2023-05-10T00:10:54.808Z,100.00
2023-05-10T00:13:23.374Z,100.00
2023-05-10T00:15:58.490Z,100.00
2023-05-10T00:18:26.905Z,100.00
2023-05-10T00:21:15.149Z,100.00
2023-05-10T00:23:43.407Z,100.00
2023-05-10T00:26:11.713Z,100.00
2023-05-10T00:28:39.992Z,100.00
2023-05-10T00:31:09.755Z,100.00
2023-05-10T00:33:38.360Z,100.00
2023-05-10T00:36:08.409Z,100.00
2023-05-10T00:38:36.767Z,100.00
2023-05-10T00:41:05.506Z,100.00
2023-05-10T00:43:33.769Z,100.00
2023-05-10T00:46:02.475Z,100.00
2023-05-10T00:48:32.215Z,100.00
2023-05-10T00:51:00.490Z,100.00
2023-05-10T00:53:29.017Z,100.00
2023-05-10T00:55:57.537Z,100.00
2023-05-10T00:58:28.977Z,100.00
2023-05-10T01:00:58.181Z,100.00
2023-05-10T01:03:26.969Z,100.00
2023-05-10T01:05:57.038Z,100.00
2023-05-10T01:08:25.649Z,100.00
2023-05-10T01:10:54.121Z,100.00
2023-05-10T01:13:32.621Z,100.00
2023-05-10T01:16:02.977Z,100.00
2023-05-10T01:18:32.071Z,100.00
2023-05-10T01:21:08.303Z,100.00
2023-05-10T01:23:57.896Z,100.00
2023-05-10T01:26:35.607Z,100.00
2023-05-10T01:29:13.604Z,100.00
2023-05-10T01:32:06.135Z,100.00
2023-05-10T01:34:37.253Z,100.00
2023-05-10T01:37:08.580Z,100.00
2023-05-10T01:39:42.941Z,100.00
2023-05-10T01:42:12.510Z,100.00
2023-05-10T01:44:42.213Z,100.00
2023-05-10T01:47:12.620Z,100.00
2023-05-10T01:49:44.114Z,100.00
2023-05-10T01:52:14.042Z,100.00
2023-05-10T01:54:45.143Z,100.00
2023-05-10T01:57:15.464Z,100.00
2023-05-10T01:59:45.123Z,100.00
2023-05-10T02:02:14.188Z,100.00
2023-05-10T02:04:44.124Z,100.00
2023-05-10T02:07:14.114Z,100.00
2023-05-10T02:09:44.562Z,100.00
2023-05-10T02:12:16.503Z,100.00
2023-05-10T02:14:45.361Z,100.00
2023-05-10T02:17:16.435Z,100.00
2023-05-10T02:19:52.573Z,100.00
2023-05-10T02:22:23.034Z,100.00
2023-05-10T02:24:52.022Z,100.00
2023-05-10T02:27:22.834Z,100.00
2023-05-10T02:29:55.080Z,100.00
2023-05-10T02:32:24.383Z,100.00
2023-05-10T02:34:55.082Z,100.00
2023-05-10T02:37:23.863Z,100.00
2023-05-10T02:39:54.386Z,100.00
2023-05-10T02:42:25.828Z,100.00
2023-05-10T02:44:55.596Z,100.00
2023-05-10T02:47:26.819Z,100.00
2023-05-10T02:49:58.368Z,100.00
2023-05-10T02:52:29.602Z,100.00
2023-05-10T02:55:10.611Z,100.00
2023-05-10T02:57:50.150Z,100.00
2023-05-10T03:00:20.090Z,100.00
2023-05-10T03:02:48.446Z,100.00
2023-05-10T03:05:18.229Z,100.00
2023-05-10T03:07:55.717Z,100.00
2023-05-10T03:10:45.160Z,100.00
2023-05-10T03:13:18.399Z,100.00
2023-05-10T03:15:51.041Z,100.00
2023-05-10T03:18:23.120Z,100.00
2023-05-10T03:20:58.729Z,100.00
2023-05-10T03:23:29.026Z,100.00
2023-05-10T03:25:57.496Z,100.00
2023-05-10T03:28:27.030Z,100.00
2023-05-10T03:30:55.572Z,100.00
2023-05-10T03:33:23.888Z,100.00
2023-05-10T03:35:54.118Z,100.00
2023-05-10T03:38:22.361Z,100.00
2023-05-10T03:40:50.655Z,100.00
2023-05-10T03:43:18.888Z,100.00
2023-05-10T03:45:47.822Z,100.00
2023-05-10T03:48:48.328Z,100.00
2023-05-10T03:51:18.356Z,100.00
2023-05-10T03:53:46.689Z,100.00
2023-05-10T03:56:15.003Z,100.00
2023-05-10T03:58:45.644Z,100.00
2023-05-10T04:01:16.291Z,100.00
2023-05-10T04:03:44.678Z,100.00
2023-05-10T04:06:22.329Z,100.00
2023-05-10T04:08:50.699Z,100.00
2023-05-10T04:11:19.369Z,100.00
2023-05-10T04:13:47.570Z,100.00
2023-05-10T04:16:18.428Z,100.00
2023-05-10T04:18:47.009Z,100.00
2023-05-10T04:21:15.625Z,100.00
2023-05-10T04:23:48.126Z,100.00
2023-05-10T04:26:16.615Z,100.00
2023-05-10T04:28:46.689Z,100.00
2023-05-10T04:31:17.719Z,100.00
2023-05-10T04:33:46.139Z,100.00
2023-05-10T04:36:14.522Z,100.00
2023-05-10T04:38:43.629Z,100.00
2023-05-10T04:41:13.355Z,100.00
2023-05-10T04:43:44.145Z,100.00
2023-05-10T04:46:14.488Z,100.00
2023-05-10T04:48:42.852Z,100.00
2023-05-10T04:51:11.252Z,100.00
2023-05-10T04:53:39.618Z,100.00
2023-05-10T04:56:09.905Z,100.00
2023-05-10T04:58:39.781Z,100.00
2023-05-10T05:01:12.156Z,100.00
2023-05-10T05:03:40.850Z,100.00
2023-05-10T05:06:12.326Z,100.00
2023-05-10T05:08:41.108Z,100.00
2023-05-10T05:11:11.844Z,100.00
2023-05-10T05:13:41.542Z,100.00
2023-05-10T05:16:11.888Z,100.00
2023-05-10T05:18:40.500Z,100.00
2023-05-10T05:21:18.001Z,100.00
2023-05-10T05:23:47.180Z,100.00
2023-05-10T05:26:16.026Z,100.00
2023-05-10T05:28:45.817Z,100.00
2023-05-10T05:31:17.966Z,100.00
2023-05-10T05:33:46.772Z,100.00
2023-05-10T05:36:15.041Z,100.00
2023-05-10T05:38:45.998Z,100.00
2023-05-10T05:41:17.411Z,100.00
2023-05-10T05:43:47.276Z,100.00
2023-05-10T05:46:15.910Z,100.00
2023-05-10T05:48:44.599Z,100.00
2023-05-10T05:51:15.333Z,100.00
2023-05-10T05:54:16.209Z,100.00
2023-05-10T05:58:09.196Z,100.00
2023-05-10T06:01:23.849Z,100.00
2023-05-10T06:04:32.222Z,100.00
2023-05-10T06:07:07.547Z,100.00
2023-05-10T06:09:37.959Z,100.00
2023-05-10T06:12:06.621Z,100.00
2023-05-10T06:15:00.722Z,100.00
2023-05-10T06:17:30.845Z,100.00
2023-05-10T06:19:59.152Z,100.00
2023-05-10T06:22:27.564Z,100.00
2023-05-10T06:24:58.705Z,100.00
2023-05-10T06:27:27.501Z,100.00
2023-05-10T06:30:09.191Z,100.00
2023-05-10T06:32:42.726Z,100.00
2023-05-10T06:35:14.404Z,100.00
2023-05-10T06:37:42.924Z,100.00
2023-05-10T06:40:12.031Z,100.00
2023-05-10T06:42:40.293Z,100.00
2023-05-10T06:45:10.234Z,100.00
2023-05-10T06:47:39.408Z,100.00
2023-05-10T06:50:10.294Z,100.00
2023-05-10T06:52:41.126Z,100.00
2023-05-10T06:55:10.576Z,100.00
2023-05-10T06:57:38.993Z,100.00
2023-05-10T07:00:53.193Z,100.00
2023-05-10T07:03:27.666Z,100.00
2023-05-10T07:06:33.032Z,100.00
2023-05-10T07:09:14.634Z,99.94
2023-05-10T07:11:48.634Z,97.87
2023-05-10T07:14:26.909Z,96.01
2023-05-10T07:17:01.230Z,94.09
2023-05-10T07:19:30.402Z,91.95
2023-05-10T07:22:03.397Z,91.33
2023-05-10T07:24:34.553Z,92.03
2023-05-10T07:27:05.456Z,91.13
2023-05-10T07:29:39.389Z,88.60
2023-05-10T07:32:15.433Z,85.42
2023-05-10T07:34:47.717Z,88.19
2023-05-10T07:37:19.178Z,85.26
2023-05-10T07:40:04.008Z,81.33
2023-05-10T07:42:40.915Z,81.06
2023-05-10T07:45:11.866Z,82.17
2023-05-10T07:47:40.441Z,81.66
2023-05-10T07:50:09.680Z,82.67
2023-05-10T07:52:39.898Z,79.86
2023-05-10T07:55:10.872Z,78.92
2023-05-10T07:57:40.436Z,79.68
2023-05-10T08:00:14.388Z,81.65
2023-05-10T08:02:43.739Z,82.96
2023-05-10T08:05:12.391Z,82.89
2023-05-10T08:07:53.399Z,81.52
2023-05-10T08:10:24.774Z,74.58
2023-05-10T08:12:53.506Z,70.06
2023-05-10T08:15:22.311Z,66.74
2023-05-10T08:17:57.454Z,67.09
2023-05-10T08:20:26.133Z,65.28
2023-05-10T08:22:56.185Z,65.87
2023-05-10T08:25:26.699Z,69.41
2023-05-10T08:28:15.112Z,65.67
2023-05-10T08:30:43.560Z,63.05
2023-05-10T08:33:11.889Z,67.83
2023-05-10T08:35:42.169Z,67.84
2023-05-10T08:38:11.968Z,69.06
2023-05-10T08:40:43.538Z,68.39
2023-05-10T08:43:12.770Z,70.48
2023-05-10T08:45:42.462Z,71.20
2023-05-10T08:48:11.464Z,73.39
2023-05-10T08:50:41.649Z,73.40
2023-05-10T08:53:14.481Z,73.41
2023-05-10T08:55:44.891Z,74.66
2023-05-10T08:58:13.277Z,73.91
2023-05-10T09:00:42.015Z,74.19
2023-05-10T09:03:11.362Z,73.89
2023-05-10T09:05:39.961Z,73.60
2023-05-10T09:08:09.068Z,72.99
2023-05-10T09:10:39.024Z,70.59
2023-05-10T09:13:07.667Z,64.16
2023-05-10T09:15:36.158Z,58.37
2023-05-10T09:18:05.006Z,55.04
2023-05-10T09:20:33.944Z,49.75
2023-05-10T09:23:02.318Z,50.83
2023-05-10T09:25:31.284Z,54.24
2023-05-10T09:28:09.314Z,58.67
2023-05-10T09:30:38.080Z,57.20
2023-05-10T09:33:06.543Z,58.26
2023-05-10T09:35:35.407Z,57.57
2023-05-10T09:38:05.260Z,60.25
2023-05-10T09:40:33.792Z,60.91
2023-05-10T09:43:05.431Z,60.73
2023-05-10T09:45:38.295Z,60.71
2023-05-10T09:48:08.135Z,59.60
2023-05-10T09:50:36.615Z,60.42
2023-05-10T09:53:05.375Z,58.73
2023-05-10T09:55:40.677Z,59.09
2023-05-10T09:58:11.861Z,60.81
2023-05-10T10:00:41.395Z,61.72
2023-05-10T10:03:14.206Z,62.93
2023-05-10T10:05:46.065Z,62.58
2023-05-10T10:08:15.207Z,65.00
2023-05-10T10:10:46.338Z,67.33
2023-05-10T10:13:18.122Z,70.15
2023-05-10T10:15:52.098Z,72.89
2023-05-10T10:18:29.637Z,74.96
2023-05-10T10:20:58.219Z,77.01
2023-05-10T10:23:32.302Z,78.60
2023-05-10T10:26:01.330Z,80.57
2023-05-10T10:28:38.050Z,80.43
2023-05-10T10:31:16.153Z,82.08
2023-05-10T10:33:57.898Z,80.98
2023-05-10T10:36:28.052Z,80.33
2023-05-10T10:39:04.717Z,80.54
2023-05-10T10:41:49.418Z,77.96
2023-05-10T10:44:48.314Z,75.84
2023-05-10T10:47:36.549Z,67.61
2023-05-10T10:50:19.557Z,69.51
2023-05-10T10:52:58.989Z,69.18
2023-05-10T10:55:31.652Z,66.67
2023-05-10T10:58:39.954Z,65.63
2023-05-10T11:01:23.402Z,66.44
2023-05-10T11:04:08.821Z,64.41
2023-05-10T11:06:52.034Z,64.48
2023-05-10T11:09:42.774Z,64.00
2023-05-10T11:12:12.377Z,64.68
2023-05-10T11:14:41.830Z,63.89
2023-05-10T11:17:24.626Z,65.03
2023-05-10T11:20:08.680Z,63.78
2023-05-10T11:25:19.091Z,66.18
2023-05-10T11:27:49.764Z,64.48
2023-05-10T11:33:07.478Z,61.92
2023-05-10T11:35:41.070Z,62.76
2023-05-10T11:38:12.470Z,61.75
2023-05-10T11:40:42.774Z,59.68
2023-05-10T11:43:12.178Z,59.07
2023-05-10T11:45:42.035Z,57.59
2023-05-10T11:48:10.551Z,54.77
2023-05-10T11:50:38.961Z,55.73
2023-05-10T11:53:07.153Z,55.98
2023-05-10T11:55:35.844Z,57.28
2023-05-10T11:58:05.943Z,59.08
2023-05-10T12:00:34.468Z,58.15
2023-05-10T12:03:03.088Z,54.09
2023-05-10T12:05:33.787Z,56.15
2023-05-10T12:08:15.121Z,55.66
2023-05-10T12:10:43.684Z,55.58
2023-05-10T12:13:16.454Z,55.03
2023-05-10T12:15:45.413Z,55.42
2023-05-10T12:18:14.475Z,52.51
2023-05-10T12:20:43.522Z,52.97
2023-05-10T12:23:11.754Z,54.02
2023-05-10T12:25:40.726Z,55.20
2023-05-10T12:28:09.888Z,56.12
2023-05-10T12:30:40.323Z,57.42
2023-05-10T12:33:12.371Z,57.20
2023-05-10T12:35:47.955Z,57.87
2023-05-10T12:38:30.816Z,55.75
2023-05-10T12:40:59.893Z,56.75
2023-05-10T12:43:28.352Z,56.18
2023-05-10T12:46:01.517Z,56.71
2023-05-10T12:48:29.850Z,56.46
2023-05-10T12:50:58.084Z,56.86
2023-05-10T12:53:26.756Z,56.67
2023-05-10T12:55:55.662Z,56.64
2023-05-10T12:58:35.127Z,57.27
2023-05-10T13:01:07.083Z,56.88
2023-05-10T13:03:39.258Z,55.80
2023-05-10T13:06:08.329Z,53.12
2023-05-10T13:08:36.581Z,52.58
2023-05-10T13:11:05.119Z,51.63
2023-05-10T13:13:33.418Z,50.63
2023-05-10T13:16:01.633Z,47.56
2023-05-10T13:18:31.345Z,45.51
2023-05-10T13:21:03.357Z,46.78
2023-05-10T13:23:31.644Z,46.75
2023-05-10T13:26:00.140Z,46.39
2023-05-10T13:28:28.806Z,42.96
2023-05-10T13:30:57.138Z,38.96
2023-05-10T13:33:25.538Z,36.73
2023-05-10T13:35:55.864Z,37.82
2023-05-10T13:38:24.216Z,40.02
2023-05-10T13:40:53.774Z,40.81
2023-05-10T13:43:22.191Z,39.37
2023-05-10T13:45:50.351Z,38.27
2023-05-10T13:48:18.574Z,36.28
2023-05-10T13:50:47.139Z,38.06
2023-05-10T13:53:16.823Z,39.47
2023-05-10T13:55:45.026Z,40.20
2023-05-10T13:58:13.229Z,42.08
2023-05-10T14:00:41.712Z,39.34
2023-05-10T14:03:11.987Z,35.93
2023-05-10T14:05:40.869Z,32.28
2023-05-10T14:08:10.351Z,31.59
2023-05-10T14:10:40.349Z,32.77
2023-05-10T14:13:08.911Z,35.46
2023-05-10T14:15:38.020Z,35.52
2023-05-10T14:18:06.809Z,37.71
2023-05-10T14:20:36.894Z,40.47
2023-05-10T14:23:05.359Z,39.38
2023-05-10T14:25:35.583Z,40.14
2023-05-10T14:28:05.400Z,40.79
2023-05-10T14:30:48.779Z,42.53
2023-05-10T14:33:18.550Z,42.27
2023-05-10T14:35:47.644Z,44.61
2023-05-10T14:38:15.860Z,46.31
2023-05-10T14:40:46.645Z,47.02
2023-05-10T14:43:16.338Z,48.57
2023-05-10T14:45:45.914Z,49.35
2023-05-10T14:48:22.119Z,50.36
2023-05-10T14:50:54.112Z,50.39
2023-05-10T14:53:22.436Z,48.65
2023-05-10T14:55:51.152Z,49.73
2023-05-10T14:58:20.904Z,49.37
2023-05-10T15:00:49.641Z,49.46
2023-05-10T15:03:19.351Z,50.25
2023-05-10T15:05:48.409Z,51.67
2023-05-10T15:08:16.600Z,52.27
2023-05-10T15:10:44.882Z,54.44
2023-05-10T15:13:13.143Z,55.85
2023-05-10T15:15:43.440Z,56.00
2023-05-10T15:18:12.094Z,56.66
2023-05-10T15:20:40.408Z,55.79
2023-05-10T15:23:08.701Z,55.19
2023-05-10T15:25:38.127Z,55.54
2023-05-10T15:28:06.394Z,55.31
2023-05-10T15:30:34.754Z,56.46
2023-05-10T15:33:04.525Z,55.57
2023-05-10T15:35:33.227Z,56.58
2023-05-10T15:38:02.983Z,56.94
2023-05-10T15:40:31.288Z,56.72
2023-05-10T15:42:59.508Z,57.36
2023-05-10T15:45:28.424Z,58.12
2023-05-10T15:47:56.779Z,59.42
2023-05-10T15:50:26.796Z,58.80
2023-05-10T15:52:55.215Z,59.15
2023-05-10T15:55:24.064Z,59.65
2023-05-10T15:57:54.397Z,59.06
2023-05-10T16:00:23.072Z,59.41
2023-05-10T16:02:53.222Z,60.03
2023-05-10T16:05:22.142Z,59.23
2023-05-10T16:07:52.165Z,59.40
2023-05-10T16:10:21.242Z,59.63
2023-05-10T16:12:49.972Z,60.52
2023-05-10T16:15:19.064Z,60.36
2023-05-10T16:17:47.730Z,61.04
2023-05-10T16:20:16.247Z,61.47
2023-05-10T16:22:44.998Z,62.27
2023-05-10T16:25:17.916Z,62.02
2023-05-10T16:27:51.065Z,62.84
2023-05-10T16:30:20.861Z,63.70
2023-05-10T16:32:51.415Z,63.78
2023-05-10T16:35:19.916Z,64.10
2023-05-10T16:37:48.309Z,63.61
2023-05-10T16:40:18.759Z,62.82
2023-05-10T16:42:47.093Z,63.08
2023-05-10T16:45:17.329Z,62.48
2023-05-10T16:47:48.496Z,62.83
2023-05-10T16:50:24.273Z,62.73
2023-05-10T16:52:53.217Z,63.04
2023-05-10T16:55:25.530Z,63.65
2023-05-10T16:57:59.682Z,64.29
2023-05-10T17:00:29.939Z,64.63
2023-05-10T17:02:58.597Z,64.12
2023-05-10T17:05:31.070Z,65.36
2023-05-10T17:07:59.497Z,66.12
2023-05-10T17:10:30.460Z,66.91
2023-05-10T17:12:58.724Z,68.11
2023-05-10T17:15:27.074Z,68.32
2023-05-10T17:17:55.483Z,69.00
2023-05-10T17:20:23.736Z,69.75
2023-05-10T17:22:52.191Z,69.84
2023-05-10T17:25:20.692Z,70.12
2023-05-10T17:27:53.652Z,70.62
2023-05-10T17:30:26.252Z,71.45
2023-05-10T17:32:55.117Z,72.37
2023-05-10T17:35:24.372Z,72.88
2023-05-10T17:37:53.229Z,74.29
2023-05-10T17:40:28.759Z,75.12
2023-05-10T17:42:58.507Z,76.39
2023-05-10T17:45:27.246Z,77.73
2023-05-10T17:47:56.147Z,78.49
2023-05-10T17:50:24.601Z,80.00
2023-05-10T17:52:53.016Z,80.13
2023-05-10T17:55:22.391Z,81.35
2023-05-10T17:57:51.926Z,82.47
2023-05-10T18:00:22.203Z,84.69
2023-05-10T18:02:50.797Z,86.82
2023-05-10T18:05:20.286Z,88.73
2023-05-10T18:07:48.909Z,93.08
2023-05-10T18:10:21.580Z,94.81
2023-05-10T18:12:50.521Z,95.56
2023-05-10T18:15:18.939Z,97.69
2023-05-10T18:17:54.256Z,97.63
2023-05-10T18:20:22.630Z,97.75
2023-05-10T18:22:59.351Z,98.99
2023-05-10T18:25:30.376Z,100.00
2023-05-10T18:27:58.700Z,100.00
2023-05-10T18:30:26.903Z,100.00
2023-05-10T18:32:57.525Z,100.00
2023-05-10T18:35:44.618Z,100.00
2023-05-10T18:38:13.532Z,100.00
2023-05-10T18:40:42.032Z,100.00
2023-05-10T18:43:13.901Z,100.00
2023-05-10T18:45:44.968Z,100.00
2023-05-10T18:48:15.251Z,100.00
2023-05-10T18:50:43.496Z,100.00
2023-05-10T18:53:12.222Z,100.00
2023-05-10T18:55:40.668Z,100.00
2023-05-10T18:58:09.211Z,100.00
2023-05-10T19:00:38.116Z,100.00
2023-05-10T19:03:06.630Z,100.00
2023-05-10T19:05:36.647Z,100.00
2023-05-10T19:08:05.487Z,100.00
2023-05-10T19:10:33.831Z,100.00
2023-05-10T19:13:02.064Z,100.00
2023-05-10T19:15:30.327Z,100.00
2023-05-10T19:17:58.975Z,100.00
2023-05-10T19:20:29.188Z,100.00
2023-05-10T19:23:09.807Z,100.00
2023-05-10T19:25:39.387Z,100.00
2023-05-10T19:28:09.005Z,100.00
2023-05-10T19:30:38.058Z,100.00
2023-05-10T19:33:06.452Z,100.00
2023-05-10T19:35:34.974Z,100.00
2023-05-10T19:38:04.711Z,100.00
2023-05-10T19:40:33.056Z,100.00
2023-05-10T19:43:01.641Z,100.00
2023-05-10T19:45:29.987Z,100.00
2023-05-10T19:47:58.474Z,100.00
2023-05-10T19:50:27.152Z,100.00
2023-05-10T19:52:55.515Z,100.00
2023-05-10T19:55:28.807Z,100.00
2023-05-10T19:57:57.095Z,100.00
2023-05-10T20:00:27.285Z,100.00
2023-05-10T20:02:56.041Z,100.00
2023-05-10T20:05:24.461Z,100.00
2023-05-10T20:07:52.712Z,100.00
2023-05-10T20:10:21.540Z,100.00
2023-05-10T20:12:52.284Z,100.00
2023-05-10T20:15:21.458Z,100.00
2023-05-10T20:17:50.969Z,100.00
2023-05-10T20:20:20.285Z,100.00
2023-05-10T20:22:48.739Z,100.00
2023-05-10T20:25:17.255Z,100.00
2023-05-10T20:27:45.585Z,100.00
2023-05-10T20:30:15.595Z,100.00
2023-05-10T20:32:44.894Z,100.00
2023-05-10T20:35:13.146Z,100.00
2023-05-10T20:37:42.160Z,100.00
2023-05-10T20:40:11.513Z,100.00
2023-05-10T20:42:49.811Z,100.00
2023-05-10T20:45:21.002Z,100.00
2023-05-10T20:47:50.125Z,100.00
2023-05-10T20:50:18.936Z,100.00
2023-05-10T20:52:54.355Z,100.00
2023-05-10T20:55:23.157Z,100.00
2023-05-10T20:58:09.334Z,100.00
2023-05-10T21:00:41.083Z,100.00
2023-05-10T21:03:13.642Z,100.00
2023-05-10T21:05:51.373Z,100.00
2023-05-10T21:08:25.291Z,100.00
2023-05-10T21:11:09.177Z,100.00
2023-05-10T21:13:44.993Z,100.00
2023-05-10T21:16:18.892Z,100.00
2023-05-10T21:18:48.265Z,100.00
2023-05-10T21:21:17.650Z,100.00
2023-05-10T21:23:46.882Z,100.00
2023-05-10T21:26:18.184Z,100.00
2023-05-10T21:28:46.975Z,100.00
2023-05-10T21:31:16.887Z,100.00
2023-05-10T21:33:45.780Z,100.00
2023-05-10T21:36:16.811Z,100.00
2023-05-10T21:38:45.246Z,100.00
2023-05-10T21:41:13.414Z,100.00
2023-05-10T21:43:41.597Z,100.00
2023-05-10T21:46:09.888Z,100.00
2023-05-10T21:48:39.403Z,100.00
2023-05-10T21:51:07.824Z,100.00
2023-05-10T21:53:42.376Z,100.00
2023-05-10T21:56:12.042Z,100.00
2023-05-10T21:58:40.214Z,100.00
2023-05-10T22:01:08.577Z,100.00
2023-05-10T22:03:36.898Z,100.00
2023-05-10T22:06:07.179Z,100.00
2023-05-10T22:08:35.461Z,100.00
2023-05-10T22:11:04.048Z,100.00
2023-05-10T22:13:32.281Z,100.00
2023-05-10T22:16:00.736Z,100.00
2023-05-10T22:18:29.086Z,100.00
2023-05-10T22:20:57.289Z,100.00
2023-05-10T22:23:26.925Z,100.00
2023-05-10T22:25:55.345Z,100.00
2023-05-10T22:28:24.089Z,100.00
2023-05-10T22:30:52.863Z,100.00
2023-05-10T22:33:22.242Z,100.00
2023-05-10T22:35:51.194Z,100.00
2023-05-10T22:38:19.443Z,100.00
2023-05-10T22:40:49.599Z,100.00
2023-05-10T22:43:18.080Z,100.00
2023-05-10T22:45:46.363Z,100.00
2023-05-10T22:48:15.502Z,100.00
2023-05-10T22:50:43.746Z,100.00
2023-05-10T22:53:12.000Z,100.00
2023-05-10T22:55:40.393Z,100.00
2023-05-10T22:58:10.279Z,100.00
2023-05-10T23:00:38.850Z,100.00
2023-05-10T23:03:07.450Z,100.00
2023-05-10T23:05:35.809Z,100.00
2023-05-10T23:08:04.002Z,100.00
2023-05-10T23:10:32.530Z,100.00
2023-05-10T23:13:00.734Z,100.00
2023-05-10T23:15:33.044Z,100.00
2023-05-10T23:18:01.497Z,100.00
2023-05-10T23:20:29.793Z,100.00
2023-05-10T23:22:58.344Z,100.00
2023-05-10T23:25:26.966Z,100.00
2023-05-10T23:27:55.210Z,100.00
2023-05-10T23:30:23.468Z,100.00
2023-05-10T23:32:53.043Z,100.00
2023-05-10T23:35:21.268Z,100.00
2023-05-10T23:37:49.609Z,100.00
2023-05-10T23:40:18.063Z,100.00
2023-05-10T23:42:46.435Z,100.00
2023-05-10T23:45:14.607Z,100.00
2023-05-10T23:47:42.800Z,100.00
2023-05-10T23:50:12.699Z,100.00
2023-05-10T23:52:41.205Z,100.00
2023-05-10T23:55:09.918Z,100.00
2023-05-10T23:57:39.186Z,100.00
